createdAt,value
2022-12-18T00:00:37.492Z,100.00
2022-12-18T00:01:19.693Z,100.00
2022-12-18T00:03:46.718Z,100.00
2022-12-18T00:05:37.605Z,100.00
2022-12-18T00:06:14.643Z,100.00
2022-12-18T00:08:45.331Z,100.00
2022-12-18T00:10:37.500Z,100.00
2022-12-18T00:11:14.374Z,100.00
2022-12-18T00:13:41.369Z,100.00
2022-12-18T00:15:37.518Z,100.00
2022-12-18T00:16:11.977Z,100.00
2022-12-18T00:18:38.984Z,100.00
2022-12-18T00:20:37.466Z,100.00
2022-12-18T00:21:08.720Z,100.00
2022-12-18T00:23:36.975Z,100.00
2022-12-18T00:25:37.480Z,100.00
2022-12-18T00:26:06.642Z,100.00
2022-12-18T00:28:35.689Z,100.00
2022-12-18T00:30:37.530Z,100.00
2022-12-18T00:31:07.229Z,100.00
2022-12-18T00:33:34.523Z,100.00
2022-12-18T00:35:37.613Z,100.00
2022-12-18T00:36:09.984Z,100.00
2022-12-18T00:38:37.826Z,100.00
2022-12-18T00:40:37.518Z,100.00
2022-12-18T00:41:05.069Z,100.00
2022-12-18T00:43:31.681Z,100.00
2022-12-18T00:45:37.619Z,100.00
2022-12-18T00:45:58.127Z,100.00
2022-12-18T00:48:24.518Z,100.00
2022-12-18T00:50:37.514Z,100.00
2022-12-18T00:50:51.661Z,100.00
2022-12-18T00:53:19.074Z,100.00
2022-12-18T00:55:37.521Z,100.00
2022-12-18T00:55:46.665Z,100.00
2022-12-18T00:58:16.874Z,100.00
2022-12-18T01:00:37.565Z,100.00
2022-12-18T01:00:44.412Z,100.00
2022-12-18T01:03:14.475Z,100.00
2022-12-18T01:05:37.604Z,100.00
2022-12-18T01:05:42.412Z,100.00
2022-12-18T01:08:08.844Z,100.00
2022-12-18T01:10:35.192Z,100.00
2022-12-18T01:10:37.500Z,100.00
2022-12-18T01:13:01.579Z,100.00
2022-12-18T01:15:27.907Z,100.00
2022-12-18T01:15:37.496Z,100.00
2022-12-18T01:17:54.621Z,100.00
2022-12-18T01:20:21.597Z,100.00
2022-12-18T01:20:37.519Z,100.00
2022-12-18T01:22:47.949Z,100.00
2022-12-18T01:25:14.467Z,100.00
2022-12-18T01:25:37.500Z,100.00
2022-12-18T01:27:40.840Z,100.00
2022-12-18T01:30:08.159Z,100.00
2022-12-18T01:30:37.494Z,100.00
2022-12-18T01:32:34.560Z,100.00
2022-12-18T01:35:00.923Z,100.00
2022-12-18T01:35:37.639Z,100.00
2022-12-18T01:37:27.259Z,100.00
2022-12-18T01:39:55.241Z,100.00
2022-12-18T01:40:37.517Z,100.00
2022-12-18T01:42:22.037Z,100.00
2022-12-18T01:45:05.713Z,100.00
2022-12-18T01:45:37.518Z,100.00
2022-12-18T01:47:45.768Z,100.00
2022-12-18T01:50:19.017Z,100.00
2022-12-18T01:50:37.535Z,100.00
2022-12-18T01:53:12.257Z,100.00
2022-12-18T01:55:43.899Z,100.00
2022-12-18T01:55:44.024Z,100.00
2022-12-18T01:58:10.658Z,100.00
2022-12-18T02:00:37.093Z,100.00
2022-12-18T02:00:37.507Z,100.00
2022-12-18T02:03:03.632Z,100.00
2022-12-18T02:05:50.566Z,100.00
2022-12-18T02:05:50.699Z,100.00
2022-12-18T02:08:46.925Z,100.00
2022-12-18T02:10:37.502Z,100.00
2022-12-18T02:11:37.458Z,100.00
2022-12-18T02:14:20.051Z,100.00
2022-12-18T02:15:37.523Z,100.00
2022-12-18T02:16:52.213Z,100.00
2022-12-18T02:20:07.377Z,100.00
2022-12-18T02:20:37.525Z,100.00
2022-12-18T02:22:58.013Z,100.00
2022-12-18T02:25:59.951Z,100.00
2022-12-18T02:26:00.094Z,100.00
2022-12-18T02:28:32.370Z,100.00
2022-12-18T02:30:37.530Z,100.00
2022-12-18T02:31:02.827Z,100.00
2022-12-18T02:33:31.839Z,100.00
2022-12-18T02:35:37.544Z,100.00
2022-12-18T02:36:00.873Z,100.00
2022-12-18T02:38:29.253Z,100.00
2022-12-18T02:40:37.564Z,100.00
2022-12-18T02:40:55.676Z,100.00
2022-12-18T02:43:22.252Z,100.00
2022-12-18T02:45:37.669Z,100.00
2022-12-18T02:45:58.629Z,100.00
2022-12-18T02:48:30.146Z,100.00
2022-12-18T02:50:37.665Z,100.00
2022-12-18T02:51:20.771Z,100.00
2022-12-18T02:54:09.937Z,100.00
2022-12-18T02:55:37.686Z,100.00
2022-12-18T02:56:50.221Z,100.00
2022-12-18T02:59:42.709Z,100.00
2022-12-18T03:00:37.721Z,100.00
2022-12-18T03:02:34.479Z,100.00
2022-12-18T03:05:21.996Z,100.00
2022-12-18T03:05:37.740Z,100.00
2022-12-18T03:08:00.537Z,100.00
2022-12-18T03:10:31.917Z,100.00
2022-12-18T03:10:37.807Z,100.00
2022-12-18T03:13:06.353Z,100.00
2022-12-18T03:15:38.432Z,100.00
2022-12-18T03:15:38.575Z,100.00
2022-12-18T03:18:13.776Z,100.00
2022-12-18T03:20:37.816Z,100.00
2022-12-18T03:20:44.340Z,100.00
2022-12-18T03:23:16.721Z,100.00
2022-12-18T03:25:37.888Z,100.00
2022-12-18T03:25:44.856Z,100.00
2022-12-18T03:28:16.568Z,100.00
2022-12-18T03:30:37.899Z,100.00
2022-12-18T03:30:45.853Z,100.00
2022-12-18T03:33:20.443Z,100.00
2022-12-18T03:35:37.881Z,100.00
2022-12-18T03:35:47.398Z,100.00
2022-12-18T03:38:14.506Z,100.00
2022-12-18T03:40:37.831Z,100.00
2022-12-18T03:40:43.930Z,100.00
2022-12-18T03:43:23.090Z,100.00
2022-12-18T03:45:37.830Z,100.00
2022-12-18T03:45:59.191Z,100.00
2022-12-18T03:48:33.263Z,100.00
2022-12-18T03:50:37.861Z,100.00
2022-12-18T03:51:08.910Z,100.00
2022-12-18T03:53:43.043Z,100.00
2022-12-18T03:55:37.835Z,100.00
2022-12-18T03:56:11.399Z,100.00
2022-12-18T03:58:41.076Z,100.00
2022-12-18T04:00:37.847Z,100.00
2022-12-18T04:01:10.991Z,100.00
2022-12-18T04:03:39.122Z,100.00
2022-12-18T04:05:37.871Z,100.00
2022-12-18T04:06:07.031Z,100.00
2022-12-18T04:08:35.736Z,100.00
2022-12-18T04:10:37.850Z,100.00
2022-12-18T04:11:03.375Z,100.00
2022-12-18T04:13:39.336Z,100.00
2022-12-18T04:15:37.946Z,100.00
2022-12-18T04:16:07.033Z,100.00
2022-12-18T04:18:33.412Z,100.00
2022-12-18T04:20:37.826Z,100.00
2022-12-18T04:20:59.867Z,100.00
2022-12-18T04:23:26.267Z,100.00
2022-12-18T04:25:37.856Z,100.00
2022-12-18T04:25:52.598Z,100.00
2022-12-18T04:28:18.981Z,100.00
2022-12-18T04:30:37.853Z,100.00
2022-12-18T04:30:46.123Z,100.00
2022-12-18T04:33:13.745Z,100.00
2022-12-18T04:35:38.038Z,100.00
2022-12-18T04:35:40.954Z,100.00
2022-12-18T04:38:09.273Z,100.00
2022-12-18T04:40:35.848Z,100.00
2022-12-18T04:40:37.875Z,100.00
2022-12-18T04:43:02.472Z,100.00
2022-12-18T04:45:28.901Z,100.00
2022-12-18T04:45:37.863Z,100.00
2022-12-18T04:47:55.215Z,100.00
2022-12-18T04:50:21.564Z,100.00
2022-12-18T04:50:37.845Z,100.00
2022-12-18T04:52:47.895Z,100.00
2022-12-18T04:55:14.299Z,100.00
2022-12-18T04:55:37.861Z,100.00
2022-12-18T04:57:40.699Z,100.00
2022-12-18T05:00:07.916Z,100.00
2022-12-18T05:00:37.859Z,100.00
2022-12-18T05:02:34.336Z,100.00
2022-12-18T05:05:00.782Z,100.00
2022-12-18T05:05:37.886Z,100.00
2022-12-18T05:07:27.164Z,100.00
2022-12-18T05:09:53.576Z,100.00
2022-12-18T05:10:38.434Z,100.00
2022-12-18T05:12:19.889Z,100.00
2022-12-18T05:14:46.258Z,100.00
2022-12-18T05:15:37.866Z,100.00
2022-12-18T05:17:12.692Z,100.00
2022-12-18T05:19:39.162Z,100.00
2022-12-18T05:20:37.885Z,100.00
2022-12-18T05:22:05.463Z,100.00
2022-12-18T05:24:31.818Z,100.00
2022-12-18T05:25:37.855Z,100.00
2022-12-18T05:26:58.135Z,100.00
2022-12-18T05:29:24.603Z,100.00
2022-12-18T05:30:37.855Z,100.00
2022-12-18T05:31:51.021Z,100.00
2022-12-18T05:34:17.533Z,100.00
2022-12-18T05:35:37.993Z,100.00
2022-12-18T05:36:44.288Z,100.00
2022-12-18T05:39:10.972Z,100.00
2022-12-18T05:40:37.869Z,100.00
2022-12-18T05:41:37.362Z,100.00
2022-12-18T05:44:03.942Z,100.00
2022-12-18T05:45:37.889Z,100.00
2022-12-18T05:46:31.950Z,100.00
2022-12-18T05:49:02.021Z,100.00
2022-12-18T05:50:37.856Z,100.00
2022-12-18T05:51:28.840Z,100.00
2022-12-18T05:53:55.813Z,100.00
2022-12-18T05:55:37.868Z,100.00
2022-12-18T05:56:23.295Z,100.00
2022-12-18T05:58:53.966Z,100.00
2022-12-18T06:00:37.889Z,100.00
2022-12-18T06:01:24.501Z,100.00
2022-12-18T06:03:51.199Z,100.00
2022-12-18T06:05:37.913Z,100.00
2022-12-18T06:06:18.779Z,100.00
2022-12-18T06:08:46.620Z,100.00
2022-12-18T06:10:37.849Z,100.00
2022-12-18T06:11:14.285Z,100.00
2022-12-18T06:13:41.001Z,100.00
2022-12-18T06:15:37.857Z,100.00
2022-12-18T06:16:09.048Z,100.00
2022-12-18T06:18:35.571Z,100.00
2022-12-18T06:20:37.886Z,100.00
2022-12-18T06:21:02.787Z,100.00
2022-12-18T06:23:29.280Z,100.00
2022-12-18T06:25:37.878Z,100.00
2022-12-18T06:25:55.627Z,100.00
2022-12-18T06:28:22.320Z,100.00
2022-12-18T06:30:37.877Z,100.00
2022-12-18T06:30:49.360Z,100.00
2022-12-18T06:33:16.890Z,100.00
2022-12-18T06:35:38.060Z,100.00
2022-12-18T06:35:43.345Z,100.00
2022-12-18T06:38:09.787Z,100.00
2022-12-18T06:40:38.991Z,100.00
2022-12-18T06:40:39.156Z,100.00
2022-12-18T06:43:05.740Z,100.00
2022-12-18T06:45:32.240Z,100.00
2022-12-18T06:45:37.937Z,100.00
2022-12-18T06:47:58.559Z,100.00
2022-12-18T06:50:25.520Z,100.00
2022-12-18T06:50:37.878Z,100.00
2022-12-18T06:52:51.902Z,100.00
2022-12-18T06:55:18.371Z,100.00
2022-12-18T06:55:37.872Z,100.00
2022-12-18T06:57:44.764Z,100.00
2022-12-18T07:00:11.583Z,100.00
2022-12-18T07:00:37.938Z,100.00
2022-12-18T07:02:38.038Z,100.00
2022-12-18T07:05:09.084Z,100.00
2022-12-18T07:05:37.925Z,100.00
2022-12-18T07:07:37.216Z,100.00
2022-12-18T07:10:04.208Z,100.00
2022-12-18T07:10:41.958Z,100.00
2022-12-18T07:12:30.704Z,100.00
2022-12-18T07:14:57.070Z,100.00
2022-12-18T07:15:37.886Z,100.00
2022-12-18T07:17:23.756Z,100.00
2022-12-18T07:19:50.106Z,100.00
2022-12-18T07:20:37.885Z,100.00
2022-12-18T07:22:16.433Z,100.00
2022-12-18T07:24:42.746Z,100.00
2022-12-18T07:25:37.888Z,100.00
2022-12-18T07:27:09.048Z,100.00
2022-12-18T07:29:36.630Z,100.00
2022-12-18T07:30:37.883Z,100.00
2022-12-18T07:32:03.094Z,100.00
2022-12-18T07:34:29.507Z,100.00
2022-12-18T07:35:37.904Z,100.00
2022-12-18T07:36:55.887Z,100.00
2022-12-18T07:39:22.246Z,100.00
2022-12-18T07:40:37.888Z,100.00
2022-12-18T07:42:08.587Z,100.00
2022-12-18T07:44:34.967Z,100.00
2022-12-18T07:45:37.993Z,100.00
2022-12-18T07:47:01.355Z,100.00
2022-12-18T07:49:28.630Z,100.00
2022-12-18T07:50:37.889Z,100.00
2022-12-18T07:51:57.028Z,100.00
2022-12-18T07:54:24.382Z,100.00
2022-12-18T07:56:05.525Z,100.00
2022-12-18T07:56:51.618Z,100.00
2022-12-18T07:59:18.732Z,100.00
2022-12-18T08:00:37.891Z,100.00
2022-12-18T08:01:45.145Z,100.00
2022-12-18T08:04:13.465Z,100.00
2022-12-18T08:05:37.937Z,100.00
2022-12-18T08:06:42.623Z,100.00
2022-12-18T08:09:12.684Z,100.00
2022-12-18T08:10:37.888Z,100.00
2022-12-18T08:11:39.256Z,100.00
2022-12-18T08:14:05.605Z,100.00
2022-12-18T08:15:37.871Z,100.00
2022-12-18T08:16:32.045Z,100.00
2022-12-18T08:18:58.487Z,100.00
2022-12-18T08:20:37.871Z,100.00
2022-12-18T08:21:27.702Z,100.00
2022-12-18T08:23:56.122Z,100.00
2022-12-18T08:25:37.889Z,100.00
2022-12-18T08:26:23.449Z,100.00
2022-12-18T08:28:51.276Z,100.00
2022-12-18T08:30:37.983Z,100.00
2022-12-18T08:31:19.113Z,100.00
2022-12-18T08:33:45.715Z,100.00
2022-12-18T08:35:41.098Z,100.00
2022-12-18T08:36:13.353Z,100.00
2022-12-18T08:38:39.787Z,100.00
2022-12-18T08:40:37.886Z,100.00
2022-12-18T08:41:08.558Z,100.00
2022-12-18T08:43:53.556Z,100.00
2022-12-18T08:45:37.908Z,100.00
2022-12-18T08:46:21.022Z,100.00
2022-12-18T08:48:47.787Z,100.00
2022-12-18T08:50:37.871Z,100.00
2022-12-18T08:51:16.956Z,100.00
2022-12-18T08:53:43.847Z,100.00
2022-12-18T08:55:37.890Z,100.00
2022-12-18T08:56:10.495Z,100.00
2022-12-18T08:58:36.988Z,100.00
2022-12-18T09:00:37.870Z,100.00
2022-12-18T09:01:10.088Z,100.00
2022-12-18T09:03:37.507Z,100.00
2022-12-18T09:05:37.984Z,100.00
2022-12-18T09:06:04.847Z,100.00
2022-12-18T09:08:31.249Z,100.00
2022-12-18T09:10:43.202Z,100.00
2022-12-18T09:10:57.637Z,100.00
2022-12-18T09:13:24.051Z,100.00
2022-12-18T09:15:37.871Z,100.00
2022-12-18T09:15:53.456Z,100.00
2022-12-18T09:18:21.573Z,100.00
2022-12-18T09:20:37.891Z,100.00
2022-12-18T09:20:48.050Z,100.00
2022-12-18T09:23:14.644Z,100.00
2022-12-18T09:25:37.908Z,100.00
2022-12-18T09:25:41.674Z,100.00
2022-12-18T09:28:13.136Z,100.00
2022-12-18T09:30:37.921Z,100.00
2022-12-18T09:30:41.245Z,100.00
2022-12-18T09:33:08.030Z,100.00
2022-12-18T09:35:40.544Z,99.80
2022-12-18T09:35:42.306Z,99.80
2022-12-18T09:38:07.392Z,98.77
2022-12-18T09:40:46.185Z,98.68
2022-12-18T09:40:46.313Z,98.68
2022-12-18T09:43:28.210Z,97.91
2022-12-18T09:45:37.858Z,97.91
2022-12-18T09:46:06.379Z,98.11
2022-12-18T09:48:38.102Z,96.27
2022-12-18T09:50:37.878Z,96.27
2022-12-18T09:51:22.584Z,95.64
2022-12-18T09:53:56.574Z,95.64
2022-12-18T09:55:37.931Z,95.64
2022-12-18T09:56:24.008Z,95.38
2022-12-18T09:58:54.786Z,93.87
2022-12-18T10:00:37.882Z,93.87
2022-12-18T10:01:24.037Z,93.73
2022-12-18T10:03:53.204Z,93.76
2022-12-18T10:05:37.988Z,93.76
2022-12-18T10:06:21.694Z,92.75
2022-12-18T10:09:21.943Z,91.86
2022-12-18T10:10:37.916Z,91.86
2022-12-18T10:12:08.568Z,92.48
2022-12-18T10:15:07.703Z,91.07
2022-12-18T10:15:37.967Z,91.07
2022-12-18T10:17:43.847Z,90.20
2022-12-18T10:20:32.109Z,89.92
2022-12-18T10:20:37.886Z,89.92
2022-12-18T10:23:14.819Z,89.32
2022-12-18T10:25:37.912Z,89.32
2022-12-18T10:25:49.531Z,89.64
2022-12-18T10:28:18.882Z,88.28
2022-12-18T10:30:37.883Z,88.28
2022-12-18T10:30:45.334Z,88.05
2022-12-18T10:33:15.404Z,86.52
2022-12-18T10:35:37.904Z,86.52
2022-12-18T10:35:43.399Z,86.52
2022-12-18T10:38:12.691Z,87.21
2022-12-18T10:40:56.057Z,86.52
2022-12-18T10:40:56.208Z,86.52
2022-12-18T10:43:30.987Z,86.28
2022-12-18T10:45:37.884Z,86.28
2022-12-18T10:46:03.505Z,86.65
2022-12-18T10:48:32.337Z,86.31
2022-12-18T10:51:09.618Z,86.31
2022-12-18T10:51:10.932Z,85.82
2022-12-18T10:53:43.528Z,85.14
2022-12-18T10:55:37.895Z,85.14
2022-12-18T10:56:10.410Z,84.86
2022-12-18T10:58:38.838Z,85.28
2022-12-18T11:00:37.946Z,85.28
2022-12-18T11:01:09.764Z,84.98
2022-12-18T11:03:42.491Z,85.07
2022-12-18T11:05:38.055Z,85.07
2022-12-18T11:06:12.199Z,84.82
2022-12-18T11:08:40.123Z,85.24
2022-12-18T11:10:37.903Z,85.24
2022-12-18T11:11:19.201Z,84.18
2022-12-18T11:14:04.310Z,85.41
2022-12-18T11:15:38.016Z,85.41
2022-12-18T11:16:35.591Z,84.45
2022-12-18T11:19:23.529Z,84.38
2022-12-18T11:20:37.910Z,84.38
2022-12-18T11:21:49.900Z,84.46
2022-12-18T11:24:30.114Z,83.21
2022-12-18T11:25:37.945Z,83.21
2022-12-18T11:27:01.309Z,84.01
2022-12-18T11:29:44.796Z,83.69
2022-12-18T11:30:37.900Z,83.69
2022-12-18T11:32:15.869Z,82.97
2022-12-18T11:34:59.155Z,83.36
2022-12-18T11:35:37.920Z,83.36
2022-12-18T11:37:26.581Z,83.33
2022-12-18T11:39:58.771Z,82.48
2022-12-18T11:40:41.032Z,82.48
2022-12-18T11:42:57.095Z,82.43
2022-12-18T11:45:35.098Z,82.48
2022-12-18T11:45:37.907Z,82.48
2022-12-18T11:48:22.492Z,81.96
2022-12-18T11:50:37.894Z,81.96
2022-12-18T11:50:57.716Z,82.49
2022-12-18T11:53:26.067Z,82.40
2022-12-18T11:55:37.914Z,82.40
2022-12-18T11:56:26.270Z,81.67
2022-12-18T11:59:06.198Z,81.54
2022-12-18T12:00:37.945Z,81.54
2022-12-18T12:02:00.704Z,81.97
2022-12-18T12:04:49.115Z,81.72
2022-12-18T12:05:37.997Z,81.72
2022-12-18T12:07:42.428Z,80.51
2022-12-18T12:10:46.872Z,81.13
2022-12-18T12:10:47.015Z,81.13
2022-12-18T12:13:28.176Z,80.85
2022-12-18T12:15:37.899Z,80.85
2022-12-18T12:16:08.358Z,80.92
2022-12-18T12:18:53.457Z,81.12
2022-12-18T12:20:37.917Z,81.12
2022-12-18T12:21:28.932Z,81.01
2022-12-18T12:24:16.635Z,80.39
2022-12-18T12:25:37.915Z,80.39
2022-12-18T12:27:04.389Z,79.90
2022-12-18T12:29:36.256Z,80.90
2022-12-18T12:30:37.962Z,80.90
2022-12-18T12:32:44.853Z,81.39
2022-12-18T12:35:41.325Z,80.82
2022-12-18T12:35:41.451Z,80.82
2022-12-18T12:38:14.671Z,81.01
2022-12-18T12:40:55.305Z,81.01
2022-12-18T12:40:56.658Z,80.99
2022-12-18T12:43:36.784Z,81.79
2022-12-18T12:45:37.949Z,81.79
2022-12-18T12:46:09.871Z,80.96
2022-12-18T12:48:50.038Z,80.49
2022-12-18T12:50:37.929Z,80.49
2022-12-18T12:51:23.818Z,80.83
2022-12-18T12:53:51.402Z,80.10
2022-12-18T12:55:37.921Z,80.10
2022-12-18T12:56:20.743Z,81.12
2022-12-18T12:59:16.184Z,81.59
2022-12-18T13:00:37.931Z,81.59
2022-12-18T13:02:15.590Z,80.91
2022-12-18T13:04:57.365Z,80.61
2022-12-18T13:05:38.009Z,80.61
2022-12-18T13:07:40.691Z,80.48
2022-12-18T13:10:40.073Z,80.43
2022-12-18T13:10:40.227Z,80.43
2022-12-18T13:13:11.116Z,80.61
2022-12-18T13:15:44.675Z,80.95
2022-12-18T13:15:46.854Z,80.95
2022-12-18T13:18:16.583Z,80.69
2022-12-18T13:20:37.920Z,80.69
2022-12-18T13:21:03.961Z,81.18
2022-12-18T13:23:40.525Z,80.69
2022-12-18T13:25:37.945Z,80.69
2022-12-18T13:26:07.343Z,80.92
2022-12-18T13:28:33.717Z,82.08
2022-12-18T13:30:37.935Z,82.08
2022-12-18T13:31:02.184Z,81.75
2022-12-18T13:33:34.680Z,81.59
2022-12-18T13:35:37.932Z,81.59
2022-12-18T13:36:13.417Z,81.32
2022-12-18T13:38:41.451Z,81.68
2022-12-18T13:40:37.950Z,81.68
2022-12-18T13:41:08.246Z,82.83
2022-12-18T13:43:44.687Z,81.91
2022-12-18T13:45:37.906Z,81.91
2022-12-18T13:46:24.112Z,82.73
2022-12-18T13:49:06.146Z,82.69
2022-12-18T13:50:37.917Z,82.69
2022-12-18T13:51:34.544Z,82.44
2022-12-18T13:54:03.980Z,82.96
2022-12-18T13:55:37.979Z,82.96
2022-12-18T13:56:33.098Z,82.53
2022-12-18T13:59:11.935Z,83.34
2022-12-18T14:00:38.002Z,83.34
2022-12-18T14:01:52.835Z,82.61
2022-12-18T14:04:21.973Z,82.94
2022-12-18T14:05:38.723Z,82.94
2022-12-18T14:06:52.545Z,83.25
2022-12-18T14:09:26.029Z,83.06
2022-12-18T14:10:49.234Z,83.06
2022-12-18T14:12:14.232Z,83.17
2022-12-18T14:14:48.168Z,83.41
2022-12-18T14:15:37.928Z,83.41
2022-12-18T14:17:16.797Z,84.42
2022-12-18T14:19:46.854Z,83.82
2022-12-18T14:20:37.933Z,83.82
2022-12-18T14:22:20.757Z,84.07
2022-12-18T14:24:48.060Z,84.60
2022-12-18T14:25:37.918Z,84.60
2022-12-18T14:27:23.098Z,85.01
2022-12-18T14:29:50.210Z,85.04
2022-12-18T14:30:37.964Z,85.04
2022-12-18T14:32:21.259Z,85.23
2022-12-18T14:34:55.031Z,84.87
2022-12-18T14:35:37.935Z,84.87
2022-12-18T14:37:26.847Z,86.08
2022-12-18T14:40:07.171Z,86.84
2022-12-18T14:40:37.949Z,86.84
2022-12-18T14:42:37.381Z,86.56
2022-12-18T14:45:43.582Z,86.34
2022-12-18T14:45:44.647Z,86.34
2022-12-18T14:48:14.265Z,87.96
2022-12-18T14:50:37.901Z,87.96
2022-12-18T14:50:43.668Z,87.28
2022-12-18T14:53:24.150Z,87.16
2022-12-18T14:55:37.931Z,87.16
2022-12-18T14:55:51.704Z,88.11
2022-12-18T14:58:19.265Z,87.57
2022-12-18T15:00:37.936Z,87.57
2022-12-18T15:00:45.676Z,88.64
2022-12-18T15:03:19.995Z,88.32
2022-12-18T15:05:37.967Z,88.32
2022-12-18T15:05:46.507Z,89.14
2022-12-18T15:08:36.689Z,89.46
2022-12-18T15:10:37.933Z,89.46
2022-12-18T15:11:05.623Z,88.77
2022-12-18T15:13:35.354Z,89.01
2022-12-18T15:15:38.019Z,89.01
2022-12-18T15:16:04.169Z,89.11
2022-12-18T15:18:41.972Z,88.99
2022-12-18T15:20:37.969Z,88.99
2022-12-18T15:21:11.166Z,89.32
2022-12-18T15:23:37.436Z,89.47
2022-12-18T15:25:37.939Z,89.47
2022-12-18T15:26:07.032Z,89.95
2022-12-18T15:28:39.043Z,89.82
2022-12-18T15:30:37.995Z,89.82
2022-12-18T15:31:09.816Z,89.86
2022-12-18T15:34:00.163Z,90.63
2022-12-18T15:35:41.211Z,90.63
2022-12-18T15:36:37.300Z,90.67
2022-12-18T15:39:05.100Z,89.60
2022-12-18T15:40:37.917Z,89.60
2022-12-18T15:41:35.741Z,90.10
2022-12-18T15:44:03.581Z,91.17
2022-12-18T15:45:37.925Z,91.17
2022-12-18T15:46:31.738Z,90.89
2022-12-18T15:49:02.144Z,91.40
2022-12-18T15:50:37.995Z,91.40
2022-12-18T15:51:36.468Z,92.09
2022-12-18T15:54:05.741Z,91.67
2022-12-18T15:55:37.954Z,91.67
2022-12-18T15:56:51.810Z,92.52
2022-12-18T15:59:20.085Z,92.05
2022-12-18T16:00:37.943Z,92.05
2022-12-18T16:01:49.312Z,91.77
2022-12-18T16:04:17.641Z,92.04
2022-12-18T16:05:37.996Z,92.04
2022-12-18T16:07:13.213Z,93.11
2022-12-18T16:09:30.609Z,93.32
2022-12-18T16:10:37.933Z,93.32
2022-12-18T16:11:56.983Z,92.72
2022-12-18T16:14:28.724Z,92.73
2022-12-18T16:15:38.002Z,92.73
2022-12-18T16:17:00.812Z,93.16
2022-12-18T16:19:28.188Z,92.95
2022-12-18T16:20:37.995Z,92.95
2022-12-18T16:21:56.756Z,94.15
2022-12-18T16:24:31.278Z,93.78
2022-12-18T16:25:37.953Z,93.78
2022-12-18T16:27:00.256Z,93.34
2022-12-18T16:29:28.329Z,93.85
2022-12-18T16:30:38.468Z,93.85
2022-12-18T16:31:56.050Z,94.26
2022-12-18T16:34:28.600Z,94.56
2022-12-18T16:35:38.015Z,94.56
2022-12-18T16:37:05.273Z,94.68
2022-12-18T16:39:34.261Z,94.96
2022-12-18T16:40:37.922Z,94.96
2022-12-18T16:42:01.963Z,94.67
2022-12-18T16:44:32.171Z,95.14
2022-12-18T16:45:37.942Z,95.14
2022-12-18T16:47:02.695Z,95.17
2022-12-18T16:49:29.587Z,95.27
2022-12-18T16:50:37.937Z,95.27
2022-12-18T16:51:55.941Z,95.52
2022-12-18T16:54:22.300Z,96.06
2022-12-18T16:55:37.935Z,96.06
2022-12-18T16:56:50.353Z,97.16
2022-12-18T16:59:16.701Z,97.19
2022-12-18T17:00:38.035Z,97.19
2022-12-18T17:01:44.318Z,96.94
2022-12-18T17:04:10.753Z,97.22
2022-12-18T17:05:37.974Z,97.22
2022-12-18T17:06:42.150Z,97.00
2022-12-18T17:09:12.508Z,97.83
2022-12-18T17:10:37.943Z,97.83
2022-12-18T17:11:38.867Z,98.13
2022-12-18T17:14:15.535Z,97.66
2022-12-18T17:15:38.109Z,97.66
2022-12-18T17:16:42.398Z,98.19
2022-12-18T17:19:12.211Z,97.72
2022-12-18T17:20:37.953Z,97.72
2022-12-18T17:21:41.742Z,99.13
2022-12-18T17:24:08.447Z,98.47
2022-12-18T17:25:37.935Z,98.47
2022-12-18T17:26:34.823Z,98.78
2022-12-18T17:29:01.263Z,98.17
2022-12-18T17:30:37.941Z,98.17
2022-12-18T17:31:29.405Z,98.63
2022-12-18T17:33:56.280Z,99.46
2022-12-18T17:35:37.935Z,99.46
2022-12-18T17:36:23.378Z,98.87
2022-12-18T17:38:52.532Z,99.19
2022-12-18T17:40:41.792Z,99.19
2022-12-18T17:41:19.383Z,99.45
2022-12-18T17:43:51.699Z,99.62
2022-12-18T17:45:37.923Z,99.62
2022-12-18T17:46:18.771Z,100.00
2022-12-18T17:48:45.537Z,99.58
2022-12-18T17:50:37.958Z,99.58
2022-12-18T17:51:12.118Z,99.75
2022-12-18T17:53:39.605Z,100.00
2022-12-18T17:55:37.962Z,100.00
2022-12-18T17:56:10.050Z,99.61
2022-12-18T17:58:37.365Z,99.81
2022-12-18T18:00:37.941Z,99.81
2022-12-18T18:01:06.624Z,99.70
2022-12-18T18:03:34.282Z,99.66
2022-12-18T18:05:37.947Z,99.66
2022-12-18T18:06:02.038Z,99.38
2022-12-18T18:08:28.863Z,99.43
2022-12-18T18:10:37.957Z,99.43
2022-12-18T18:11:15.907Z,99.01
2022-12-18T18:14:00.895Z,99.29
2022-12-18T18:15:37.937Z,99.29
2022-12-18T18:16:39.898Z,99.61
2022-12-18T18:19:10.837Z,98.62
2022-12-18T18:20:37.938Z,98.62
2022-12-18T18:21:42.719Z,99.89
2022-12-18T18:24:12.679Z,98.74
2022-12-18T18:25:37.959Z,98.74
2022-12-18T18:26:41.464Z,98.96
2022-12-18T18:29:22.453Z,98.40
2022-12-18T18:30:37.921Z,98.40
2022-12-18T18:31:49.532Z,98.68
2022-12-18T18:34:18.787Z,99.53
2022-12-18T18:35:53.909Z,99.53
2022-12-18T18:36:46.194Z,99.31
2022-12-18T18:39:13.520Z,98.75
2022-12-18T18:40:37.964Z,98.75
2022-12-18T18:41:39.952Z,98.93
2022-12-18T18:44:06.910Z,99.44
2022-12-18T18:45:37.996Z,99.44
2022-12-18T18:46:33.626Z,99.52
2022-12-18T18:48:59.947Z,99.49
2022-12-18T18:50:38.131Z,99.49
2022-12-18T18:51:31.443Z,100.00
2022-12-18T18:54:01.035Z,99.31
2022-12-18T18:55:37.929Z,99.31
2022-12-18T18:56:56.296Z,100.00
2022-12-18T18:59:16.502Z,99.54
2022-12-18T19:00:38.022Z,99.54
2022-12-18T19:01:43.210Z,100.00
2022-12-18T19:04:10.214Z,99.65
2022-12-18T19:05:39.831Z,99.65
2022-12-18T19:06:36.608Z,99.79
2022-12-18T19:09:05.139Z,100.00
2022-12-18T19:10:37.965Z,100.00
2022-12-18T19:11:50.877Z,100.00
2022-12-18T19:14:17.583Z,100.00
2022-12-18T19:15:37.975Z,100.00
2022-12-18T19:16:45.461Z,100.00
2022-12-18T19:19:12.865Z,99.21
2022-12-18T19:20:37.964Z,99.21
2022-12-18T19:21:39.222Z,99.71
2022-12-18T19:24:06.250Z,99.59
2022-12-18T19:25:40.492Z,99.59
2022-12-18T19:26:32.635Z,99.28
2022-12-18T19:29:07.605Z,100.00
2022-12-18T19:30:37.979Z,100.00
2022-12-18T19:31:36.357Z,99.07
2022-12-18T19:34:07.770Z,99.28
2022-12-18T19:35:37.950Z,99.28
2022-12-18T19:36:36.261Z,98.54
2022-12-18T19:39:09.123Z,98.74
2022-12-18T19:40:37.978Z,98.74
2022-12-18T19:41:35.495Z,98.25
2022-12-18T19:44:07.492Z,99.05
2022-12-18T19:45:38.017Z,99.05
2022-12-18T19:46:35.513Z,98.39
2022-12-18T19:49:02.397Z,98.42
2022-12-18T19:50:37.990Z,98.42
2022-12-18T19:51:30.668Z,99.15
2022-12-18T19:54:01.370Z,98.04
2022-12-18T19:55:37.965Z,98.04
2022-12-18T19:56:30.965Z,98.10
2022-12-18T19:58:57.665Z,98.60
2022-12-18T20:00:37.960Z,98.60
2022-12-18T20:01:25.282Z,98.14
2022-12-18T20:03:52.981Z,97.62
2022-12-18T20:05:37.950Z,97.62
2022-12-18T20:06:28.527Z,98.19
2022-12-18T20:09:00.289Z,97.08
2022-12-18T20:10:37.949Z,97.08
2022-12-18T20:11:27.515Z,97.18
2022-12-18T20:13:53.971Z,97.73
2022-12-18T20:15:43.416Z,97.73
2022-12-18T20:16:20.535Z,97.39
2022-12-18T20:18:47.056Z,98.49
2022-12-18T20:20:37.968Z,98.49
2022-12-18T20:21:14.267Z,98.40
2022-12-18T20:23:41.261Z,98.06
2022-12-18T20:25:37.955Z,98.06
2022-12-18T20:26:08.672Z,97.12
2022-12-18T20:28:35.362Z,97.27
2022-12-18T20:30:37.981Z,97.27
2022-12-18T20:31:03.744Z,97.52
2022-12-18T20:33:30.771Z,98.08
2022-12-18T20:35:37.973Z,98.08
2022-12-18T20:36:07.366Z,98.17
2022-12-18T20:38:35.248Z,97.59
2022-12-18T20:40:37.980Z,97.59
2022-12-18T20:41:06.694Z,98.13
2022-12-18T20:43:33.109Z,97.88
2022-12-18T20:45:37.977Z,97.88
2022-12-18T20:46:04.004Z,97.87
2022-12-18T20:48:31.233Z,97.57
2022-12-18T20:50:37.968Z,97.57
2022-12-18T20:51:03.673Z,97.97
2022-12-18T20:53:31.345Z,98.10
2022-12-18T20:55:37.971Z,98.10
2022-12-18T20:55:57.765Z,97.78
2022-12-18T20:58:24.462Z,98.58
2022-12-18T21:00:37.969Z,98.58
2022-12-18T21:01:02.070Z,97.72
2022-12-18T21:03:28.620Z,98.07
2022-12-18T21:05:37.976Z,98.07
2022-12-18T21:05:54.992Z,98.01
2022-12-18T21:08:21.273Z,98.42
2022-12-18T21:10:37.992Z,98.42
2022-12-18T21:10:47.641Z,98.38
2022-12-18T21:13:14.090Z,98.27
2022-12-18T21:15:37.984Z,98.27
2022-12-18T21:15:40.772Z,99.44
2022-12-18T21:18:07.103Z,100.00